sensor_id;sensor_type;location;lat;lon;timestamp;temperature;humidity
47382;DHT22;33128;51.580;5.170;2023-10-19T00:00:46;14.30;99.90
47382;DHT22;33128;51.580;5.170;2023-10-19T00:03:14;14.40;99.90
47382;DHT22;33128;51.580;5.170;2023-10-19T00:05:41;14.40;99.90
47382;DHT22;33128;51.580;5.170;2023-10-19T00:08:11;14.50;99.90
47382;DHT22;33128;51.580;5.170;2023-10-19T00:10:44;14.40;99.90
47382;DHT22;33128;51.580;5.170;2023-10-19T00:13:14;14.50;99.90
47382;DHT22;33128;51.580;5.170;2023-10-19T00:15:41;14.50;99.90
47382;DHT22;33128;51.580;5.170;2023-10-19T00:18:14;14.60;99.90
47382;DHT22;33128;51.580;5.170;2023-10-19T00:20:51;14.60;99.90
47382;DHT22;33128;51.580;5.170;2023-10-19T00:23:19;14.60;99.90
47382;DHT22;33128;51.580;5.170;2023-10-19T00:25:54;14.60;99.90
47382;DHT22;33128;51.580;5.170;2023-10-19T00:28:20;14.70;99.90
47382;DHT22;33128;51.580;5.170;2023-10-19T00:30:48;14.70;99.90
47382;DHT22;33128;51.580;5.170;2023-10-19T00:33:15;14.60;99.90
47382;DHT22;33128;51.580;5.170;2023-10-19T00:35:46;14.60;99.90
47382;DHT22;33128;51.580;5.170;2023-10-19T00:38:30;14.70;99.90
47382;DHT22;33128;51.580;5.170;2023-10-19T00:40:59;14.70;99.90
47382;DHT22;33128;51.580;5.170;2023-10-19T00:43:31;14.70;99.90
47382;DHT22;33128;51.580;5.170;2023-10-19T00:46:02;14.70;99.90
47382;DHT22;33128;51.580;5.170;2023-10-19T00:48:55;14.70;99.90
47382;DHT22;33128;51.580;5.170;2023-10-19T00:51:52;14.70;99.90
47382;DHT22;33128;51.580;5.170;2023-10-19T00:54:23;14.70;99.90
47382;DHT22;33128;51.580;5.170;2023-10-19T00:56:57;14.70;99.90
47382;DHT22;33128;51.580;5.170;2023-10-19T00:59:26;14.70;99.90
47382;DHT22;33128;51.580;5.170;2023-10-19T01:02:01;14.70;99.90
47382;DHT22;33128;51.580;5.170;2023-10-19T01:04:47;14.70;99.90
47382;DHT22;33128;51.580;5.170;2023-10-19T01:07:27;14.80;99.90
47382;DHT22;33128;51.580;5.170;2023-10-19T01:09:58;14.70;99.90
47382;DHT22;33128;51.580;5.170;2023-10-19T01:12:34;14.80;99.90
47382;DHT22;33128;51.580;5.170;2023-10-19T01:15:16;14.80;99.90
47382;DHT22;33128;51.580;5.170;2023-10-19T01:20:11;14.80;99.90
47382;DHT22;33128;51.580;5.170;2023-10-19T01:23:06;14.80;99.90
47382;DHT22;33128;51.580;5.170;2023-10-19T01:28:12;14.80;99.90
47382;DHT22;33128;51.580;5.170;2023-10-19T01:30:42;14.90;99.90
47382;DHT22;33128;51.580;5.170;2023-10-19T01:33:09;14.90;99.90
47382;DHT22;33128;51.580;5.170;2023-10-19T01:35:42;14.80;99.90
47382;DHT22;33128;51.580;5.170;2023-10-19T01:38:38;14.90;99.90
47382;DHT22;33128;51.580;5.170;2023-10-19T01:41:04;14.90;99.90
47382;DHT22;33128;51.580;5.170;2023-10-19T01:43:41;14.90;99.90
47382;DHT22;33128;51.580;5.170;2023-10-19T01:46:11;15.00;99.90
47382;DHT22;33128;51.580;5.170;2023-10-19T01:48:41;15.00;99.90
47382;DHT22;33128;51.580;5.170;2023-10-19T01:51:09;15.10;99.90
47382;DHT22;33128;51.580;5.170;2023-10-19T01:53:40;15.10;99.90
47382;DHT22;33128;51.580;5.170;2023-10-19T01:56:10;15.10;99.90
47382;DHT22;33128;51.580;5.170;2023-10-19T01:58:40;15.20;99.90
47382;DHT22;33128;51.580;5.170;2023-10-19T02:01:07;15.20;99.90
47382;DHT22;33128;51.580;5.170;2023-10-19T02:03:58;15.30;99.90
47382;DHT22;33128;51.580;5.170;2023-10-19T02:06:29;15.30;99.90
47382;DHT22;33128;51.580;5.170;2023-10-19T02:09:07;15.30;99.90
47382;DHT22;33128;51.580;5.170;2023-10-19T02:11:43;15.30;99.90
47382;DHT22;33128;51.580;5.170;2023-10-19T02:14:11;15.30;99.90
47382;DHT22;33128;51.580;5.170;2023-10-19T02:16:44;15.40;99.90
47382;DHT22;33128;51.580;5.170;2023-10-19T02:19:13;15.40;99.90
47382;DHT22;33128;51.580;5.170;2023-10-19T02:21:39;15.40;99.90
47382;DHT22;33128;51.580;5.170;2023-10-19T02:24:09;15.40;99.90
47382;DHT22;33128;51.580;5.170;2023-10-19T02:26:40;15.40;99.90
47382;DHT22;33128;51.580;5.170;2023-10-19T02:29:06;15.40;99.90
47382;DHT22;33128;51.580;5.170;2023-10-19T02:31:39;15.40;99.90
47382;DHT22;33128;51.580;5.170;2023-10-19T02:34:06;15.50;99.90
47382;DHT22;33128;51.580;5.170;2023-10-19T02:36:33;15.50;99.90
47382;DHT22;33128;51.580;5.170;2023-10-19T02:39:04;15.40;99.90
47382;DHT22;33128;51.580;5.170;2023-10-19T02:41:43;15.50;99.90
47382;DHT22;33128;51.580;5.170;2023-10-19T02:44:13;15.50;99.90
47382;DHT22;33128;51.580;5.170;2023-10-19T02:46:42;15.50;99.90
47382;DHT22;33128;51.580;5.170;2023-10-19T02:49:08;15.50;99.90
47382;DHT22;33128;51.580;5.170;2023-10-19T02:51:42;15.50;99.90
47382;DHT22;33128;51.580;5.170;2023-10-19T02:54:18;15.50;99.90
47382;DHT22;33128;51.580;5.170;2023-10-19T02:56:46;15.50;99.90
47382;DHT22;33128;51.580;5.170;2023-10-19T02:59:19;15.50;99.90
47382;DHT22;33128;51.580;5.170;2023-10-19T03:01:55;15.50;99.90
47382;DHT22;33128;51.580;5.170;2023-10-19T03:04:45;15.50;99.90
47382;DHT22;33128;51.580;5.170;2023-10-19T03:07:11;15.50;99.90
47382;DHT22;33128;51.580;5.170;2023-10-19T03:09:40;15.40;99.90
47382;DHT22;33128;51.580;5.170;2023-10-19T03:12:14;15.50;99.90
47382;DHT22;33128;51.580;5.170;2023-10-19T03:14:40;15.40;99.90
47382;DHT22;33128;51.580;5.170;2023-10-19T03:17:11;15.40;99.90
47382;DHT22;33128;51.580;5.170;2023-10-19T03:19:37;15.40;99.90
47382;DHT22;33128;51.580;5.170;2023-10-19T03:22:03;15.40;99.90
47382;DHT22;33128;51.580;5.170;2023-10-19T03:24:31;15.40;99.90
47382;DHT22;33128;51.580;5.170;2023-10-19T03:27:10;15.40;99.90
47382;DHT22;33128;51.580;5.170;2023-10-19T03:29:49;15.40;99.90
47382;DHT22;33128;51.580;5.170;2023-10-19T03:32:22;15.40;99.90
47382;DHT22;33128;51.580;5.170;2023-10-19T03:34:52;15.40;99.90
47382;DHT22;33128;51.580;5.170;2023-10-19T03:37:24;15.40;99.90
47382;DHT22;33128;51.580;5.170;2023-10-19T03:39:51;15.40;99.90
47382;DHT22;33128;51.580;5.170;2023-10-19T03:42:17;15.40;99.90
47382;DHT22;33128;51.580;5.170;2023-10-19T03:44:42;15.40;99.90
47382;DHT22;33128;51.580;5.170;2023-10-19T03:47:30;15.40;99.90
47382;DHT22;33128;51.580;5.170;2023-10-19T03:50:03;15.40;99.90
47382;DHT22;33128;51.580;5.170;2023-10-19T03:52:34;15.40;99.90
47382;DHT22;33128;51.580;5.170;2023-10-19T03:55:03;15.40;99.90
47382;DHT22;33128;51.580;5.170;2023-10-19T03:57:31;15.40;99.90
47382;DHT22;33128;51.580;5.170;2023-10-19T03:59:56;15.30;99.90
47382;DHT22;33128;51.580;5.170;2023-10-19T04:02:23;15.30;99.90
47382;DHT22;33128;51.580;5.170;2023-10-19T04:04:49;15.30;99.90
47382;DHT22;33128;51.580;5.170;2023-10-19T04:07:18;15.40;99.90
47382;DHT22;33128;51.580;5.170;2023-10-19T04:09:48;15.40;99.90
47382;DHT22;33128;51.580;5.170;2023-10-19T04:12:40;15.50;99.90
47382;DHT22;33128;51.580;5.170;2023-10-19T04:15:09;15.50;99.90
47382;DHT22;33128;51.580;5.170;2023-10-19T04:17:41;15.50;99.90
47382;DHT22;33128;51.580;5.170;2023-10-19T04:20:16;15.40;99.90
47382;DHT22;33128;51.580;5.170;2023-10-19T04:22:45;15.40;99.90
47382;DHT22;33128;51.580;5.170;2023-10-19T04:25:11;15.40;99.90
47382;DHT22;33128;51.580;5.170;2023-10-19T04:27:41;15.40;99.90
47382;DHT22;33128;51.580;5.170;2023-10-19T04:30:10;15.40;99.90
47382;DHT22;33128;51.580;5.170;2023-10-19T04:32:44;15.40;99.90
47382;DHT22;33128;51.580;5.170;2023-10-19T04:35:10;15.40;99.90
47382;DHT22;33128;51.580;5.170;2023-10-19T04:37:38;15.40;99.90
47382;DHT22;33128;51.580;5.170;2023-10-19T04:40:08;15.40;99.90
47382;DHT22;33128;51.580;5.170;2023-10-19T04:42:34;15.40;99.90
47382;DHT22;33128;51.580;5.170;2023-10-19T04:45:02;15.30;99.90
47382;DHT22;33128;51.580;5.170;2023-10-19T04:47:28;15.40;99.90
47382;DHT22;33128;51.580;5.170;2023-10-19T04:49:53;15.30;99.90
47382;DHT22;33128;51.580;5.170;2023-10-19T04:52:19;15.40;99.90
47382;DHT22;33128;51.580;5.170;2023-10-19T04:54:44;15.30;99.90
47382;DHT22;33128;51.580;5.170;2023-10-19T04:57:10;15.40;99.90
47382;DHT22;33128;51.580;5.170;2023-10-19T04:59:36;15.40;99.90
47382;DHT22;33128;51.580;5.170;2023-10-19T05:02:02;15.40;99.90
47382;DHT22;33128;51.580;5.170;2023-10-19T05:04:28;15.40;99.90
47382;DHT22;33128;51.580;5.170;2023-10-19T05:06:55;15.40;99.90
47382;DHT22;33128;51.580;5.170;2023-10-19T05:12:42;15.40;99.90
47382;DHT22;33128;51.580;5.170;2023-10-19T05:15:07;15.40;99.90
47382;DHT22;33128;51.580;5.170;2023-10-19T05:17:33;15.40;99.90
47382;DHT22;33128;51.580;5.170;2023-10-19T05:19:59;15.40;99.90
47382;DHT22;33128;51.580;5.170;2023-10-19T05:22:24;15.50;99.90
47382;DHT22;33128;51.580;5.170;2023-10-19T05:24:53;15.40;99.90
47382;DHT22;33128;51.580;5.170;2023-10-19T05:27:19;15.40;99.90
47382;DHT22;33128;51.580;5.170;2023-10-19T05:29:45;15.50;99.90
47382;DHT22;33128;51.580;5.170;2023-10-19T05:32:11;15.40;99.90
47382;DHT22;33128;51.580;5.170;2023-10-19T05:34:36;15.50;99.90
47382;DHT22;33128;51.580;5.170;2023-10-19T05:37:02;15.50;99.90
47382;DHT22;33128;51.580;5.170;2023-10-19T05:39:31;15.50;99.90
47382;DHT22;33128;51.580;5.170;2023-10-19T05:41:57;15.50;99.90
47382;DHT22;33128;51.580;5.170;2023-10-19T05:44:29;15.50;99.90
47382;DHT22;33128;51.580;5.170;2023-10-19T05:46:55;15.50;99.90
47382;DHT22;33128;51.580;5.170;2023-10-19T05:49:22;15.50;99.90
47382;DHT22;33128;51.580;5.170;2023-10-19T05:51:49;15.50;99.90
47382;DHT22;33128;51.580;5.170;2023-10-19T05:54:15;15.50;99.90
47382;DHT22;33128;51.580;5.170;2023-10-19T05:56:42;15.50;99.90
47382;DHT22;33128;51.580;5.170;2023-10-19T05:59:08;15.50;99.90
47382;DHT22;33128;51.580;5.170;2023-10-19T06:01:35;15.50;99.90
47382;DHT22;33128;51.580;5.170;2023-10-19T06:04:02;15.50;99.90
47382;DHT22;33128;51.580;5.170;2023-10-19T06:06:28;15.50;99.90
47382;DHT22;33128;51.580;5.170;2023-10-19T06:08:53;15.50;99.90
47382;DHT22;33128;51.580;5.170;2023-10-19T06:11:20;15.60;99.90
47382;DHT22;33128;51.580;5.170;2023-10-19T06:13:46;15.60;99.90
47382;DHT22;33128;51.580;5.170;2023-10-19T06:16:11;15.70;99.90
47382;DHT22;33128;51.580;5.170;2023-10-19T06:18:37;15.70;99.90
47382;DHT22;33128;51.580;5.170;2023-10-19T06:21:03;15.70;99.90
47382;DHT22;33128;51.580;5.170;2023-10-19T06:23:29;15.80;99.90
47382;DHT22;33128;51.580;5.170;2023-10-19T06:25:56;15.80;99.90
47382;DHT22;33128;51.580;5.170;2023-10-19T06:28:22;15.90;99.90
47382;DHT22;33128;51.580;5.170;2023-10-19T06:30:48;15.90;99.90
47382;DHT22;33128;51.580;5.170;2023-10-19T06:33:14;15.80;99.90
47382;DHT22;33128;51.580;5.170;2023-10-19T06:35:39;15.80;99.90
47382;DHT22;33128;51.580;5.170;2023-10-19T06:38:05;15.80;99.90
47382;DHT22;33128;51.580;5.170;2023-10-19T06:40:34;15.80;99.90
47382;DHT22;33128;51.580;5.170;2023-10-19T06:43:01;15.80;99.90
47382;DHT22;33128;51.580;5.170;2023-10-19T06:45:28;15.80;99.90
47382;DHT22;33128;51.580;5.170;2023-10-19T06:47:57;15.70;99.90
47382;DHT22;33128;51.580;5.170;2023-10-19T06:50:24;15.80;99.90
47382;DHT22;33128;51.580;5.170;2023-10-19T06:52:51;15.70;99.90
47382;DHT22;33128;51.580;5.170;2023-10-19T06:55:18;15.80;99.90
47382;DHT22;33128;51.580;5.170;2023-10-19T06:57:49;15.80;99.90
47382;DHT22;33128;51.580;5.170;2023-10-19T07:00:16;15.80;99.90
47382;DHT22;33128;51.580;5.170;2023-10-19T07:02:48;15.80;99.90
47382;DHT22;33128;51.580;5.170;2023-10-19T07:05:15;15.80;99.90
47382;DHT22;33128;51.580;5.170;2023-10-19T07:07:48;15.80;99.90
47382;DHT22;33128;51.580;5.170;2023-10-19T07:10:15;15.80;99.90
47382;DHT22;33128;51.580;5.170;2023-10-19T07:12:45;15.80;99.90
47382;DHT22;33128;51.580;5.170;2023-10-19T07:15:12;15.80;99.90
47382;DHT22;33128;51.580;5.170;2023-10-19T07:17:43;15.90;99.90
47382;DHT22;33128;51.580;5.170;2023-10-19T07:20:10;15.90;99.90
47382;DHT22;33128;51.580;5.170;2023-10-19T07:22:52;15.90;99.90
47382;DHT22;33128;51.580;5.170;2023-10-19T07:25:17;15.90;99.90
47382;DHT22;33128;51.580;5.170;2023-10-19T07:27:51;15.90;99.90
47382;DHT22;33128;51.580;5.170;2023-10-19T07:30:19;15.90;99.90
47382;DHT22;33128;51.580;5.170;2023-10-19T07:32:48;15.90;99.90
47382;DHT22;33128;51.580;5.170;2023-10-19T07:35:17;15.90;99.90
47382;DHT22;33128;51.580;5.170;2023-10-19T07:37:46;16.00;99.90
47382;DHT22;33128;51.580;5.170;2023-10-19T07:40:14;15.90;99.90
47382;DHT22;33128;51.580;5.170;2023-10-19T07:42:42;16.00;99.90
47382;DHT22;33128;51.580;5.170;2023-10-19T07:45:08;16.00;99.90
47382;DHT22;33128;51.580;5.170;2023-10-19T07:47:38;16.00;99.90
47382;DHT22;33128;51.580;5.170;2023-10-19T07:50:09;16.00;99.90
47382;DHT22;33128;51.580;5.170;2023-10-19T07:52:41;16.10;99.90
47382;DHT22;33128;51.580;5.170;2023-10-19T07:55:09;16.10;99.90
47382;DHT22;33128;51.580;5.170;2023-10-19T07:57:34;16.10;99.90
47382;DHT22;33128;51.580;5.170;2023-10-19T08:00:00;16.10;99.90
47382;DHT22;33128;51.580;5.170;2023-10-19T08:02:29;16.10;99.90
47382;DHT22;33128;51.580;5.170;2023-10-19T08:04:55;16.10;99.90
47382;DHT22;33128;51.580;5.170;2023-10-19T08:07:21;16.10;99.90
47382;DHT22;33128;51.580;5.170;2023-10-19T08:09:47;16.20;99.90
47382;DHT22;33128;51.580;5.170;2023-10-19T08:12:13;16.10;99.90
47382;DHT22;33128;51.580;5.170;2023-10-19T08:14:39;16.20;99.90
47382;DHT22;33128;51.580;5.170;2023-10-19T08:17:05;16.30;99.90
47382;DHT22;33128;51.580;5.170;2023-10-19T08:19:34;16.30;99.90
47382;DHT22;33128;51.580;5.170;2023-10-19T08:22:00;16.30;99.90
47382;DHT22;33128;51.580;5.170;2023-10-19T08:24:25;16.40;99.90
47382;DHT22;33128;51.580;5.170;2023-10-19T08:26:55;16.40;99.90
47382;DHT22;33128;51.580;5.170;2023-10-19T08:29:21;16.50;99.90
47382;DHT22;33128;51.580;5.170;2023-10-19T08:31:49;16.50;99.90
47382;DHT22;33128;51.580;5.170;2023-10-19T08:34:15;16.50;99.90
47382;DHT22;33128;51.580;5.170;2023-10-19T08:36:42;16.50;99.90
47382;DHT22;33128;51.580;5.170;2023-10-19T08:39:09;16.50;99.90
47382;DHT22;33128;51.580;5.170;2023-10-19T08:41:37;16.50;99.90
47382;DHT22;33128;51.580;5.170;2023-10-19T08:44:07;16.40;99.90
47382;DHT22;33128;51.580;5.170;2023-10-19T08:46:45;16.40;99.90
47382;DHT22;33128;51.580;5.170;2023-10-19T08:49:13;16.40;99.90
47382;DHT22;33128;51.580;5.170;2023-10-19T08:51:43;16.40;99.90
47382;DHT22;33128;51.580;5.170;2023-10-19T08:54:11;16.50;99.90
47382;DHT22;33128;51.580;5.170;2023-10-19T08:56:37;16.40;99.90
47382;DHT22;33128;51.580;5.170;2023-10-19T08:59:12;16.50;99.90
47382;DHT22;33128;51.580;5.170;2023-10-19T09:01:43;16.50;99.90
47382;DHT22;33128;51.580;5.170;2023-10-19T09:04:11;16.50;99.90
47382;DHT22;33128;51.580;5.170;2023-10-19T09:06:38;16.60;99.90
47382;DHT22;33128;51.580;5.170;2023-10-19T09:09:08;16.60;99.90
47382;DHT22;33128;51.580;5.170;2023-10-19T09:11:35;16.70;99.90
47382;DHT22;33128;51.580;5.170;2023-10-19T09:14:01;16.70;99.90
47382;DHT22;33128;51.580;5.170;2023-10-19T09:16:26;16.80;99.90
47382;DHT22;33128;51.580;5.170;2023-10-19T09:18:55;16.90;99.90
47382;DHT22;33128;51.580;5.170;2023-10-19T09:21:21;17.00;99.90
47382;DHT22;33128;51.580;5.170;2023-10-19T09:23:51;17.10;99.90
47382;DHT22;33128;51.580;5.170;2023-10-19T09:26:20;17.10;99.90
47382;DHT22;33128;51.580;5.170;2023-10-19T09:28:51;17.20;99.90
47382;DHT22;33128;51.580;5.170;2023-10-19T09:31:20;17.30;99.90
47382;DHT22;33128;51.580;5.170;2023-10-19T09:33:48;17.40;99.90
47382;DHT22;33128;51.580;5.170;2023-10-19T09:36:18;17.40;99.90
47382;DHT22;33128;51.580;5.170;2023-10-19T09:38:47;17.40;99.90
47382;DHT22;33128;51.580;5.170;2023-10-19T09:41:21;17.40;99.90
47382;DHT22;33128;51.580;5.170;2023-10-19T09:43:48;17.40;99.90
47382;DHT22;33128;51.580;5.170;2023-10-19T09:46:27;17.40;99.90
47382;DHT22;33128;51.580;5.170;2023-10-19T09:48:55;17.40;99.90
47382;DHT22;33128;51.580;5.170;2023-10-19T09:51:22;17.40;99.90
47382;DHT22;33128;51.580;5.170;2023-10-19T09:53:59;17.40;99.90
47382;DHT22;33128;51.580;5.170;2023-10-19T09:56:35;17.40;99.90
47382;DHT22;33128;51.580;5.170;2023-10-19T09:59:23;17.40;99.90
47382;DHT22;33128;51.580;5.170;2023-10-19T10:02:11;17.50;99.90
47382;DHT22;33128;51.580;5.170;2023-10-19T10:04:49;17.50;99.90
47382;DHT22;33128;51.580;5.170;2023-10-19T10:07:15;17.60;99.90
47382;DHT22;33128;51.580;5.170;2023-10-19T10:09:44;17.60;99.90
47382;DHT22;33128;51.580;5.170;2023-10-19T10:15:02;17.60;99.90
47382;DHT22;33128;51.580;5.170;2023-10-19T10:17:34;17.60;99.90
47382;DHT22;33128;51.580;5.170;2023-10-19T10:22:40;17.80;99.90
47382;DHT22;33128;51.580;5.170;2023-10-19T10:25:28;17.80;99.90
47382;DHT22;33128;51.580;5.170;2023-10-19T10:27:54;17.80;99.90
47382;DHT22;33128;51.580;5.170;2023-10-19T10:30:20;17.80;99.90
47382;DHT22;33128;51.580;5.170;2023-10-19T10:32:51;17.80;99.90
47382;DHT22;33128;51.580;5.170;2023-10-19T10:35:53;17.90;99.90
47382;DHT22;33128;51.580;5.170;2023-10-19T10:38:19;17.90;99.90
47382;DHT22;33128;51.580;5.170;2023-10-19T10:40:49;17.80;99.90
47382;DHT22;33128;51.580;5.170;2023-10-19T10:43:16;17.80;99.90
47382;DHT22;33128;51.580;5.170;2023-10-19T10:45:42;17.80;99.90
47382;DHT22;33128;51.580;5.170;2023-10-19T10:48:12;17.80;99.90
47382;DHT22;33128;51.580;5.170;2023-10-19T10:50:38;17.80;99.90
47382;DHT22;33128;51.580;5.170;2023-10-19T10:53:05;17.80;99.90
47382;DHT22;33128;51.580;5.170;2023-10-19T10:55:30;18.00;99.90
47382;DHT22;33128;51.580;5.170;2023-10-19T10:57:57;18.00;99.90
47382;DHT22;33128;51.580;5.170;2023-10-19T11:00:26;18.20;99.90
47382;DHT22;33128;51.580;5.170;2023-10-19T11:03:06;18.20;99.90
47382;DHT22;33128;51.580;5.170;2023-10-19T11:05:36;18.20;99.90
47382;DHT22;33128;51.580;5.170;2023-10-19T11:08:24;18.20;99.90
47382;DHT22;33128;51.580;5.170;2023-10-19T11:10:49;18.10;99.90
47382;DHT22;33128;51.580;5.170;2023-10-19T11:13:23;18.00;99.90
47382;DHT22;33128;51.580;5.170;2023-10-19T11:15:53;18.00;99.90
47382;DHT22;33128;51.580;5.170;2023-10-19T11:18:39;17.90;99.90
47382;DHT22;33128;51.580;5.170;2023-10-19T11:21:12;17.90;99.90
47382;DHT22;33128;51.580;5.170;2023-10-19T11:26:09;17.90;99.90
47382;DHT22;33128;51.580;5.170;2023-10-19T11:28:35;17.90;99.90
47382;DHT22;33128;51.580;5.170;2023-10-19T11:31:16;17.90;99.90
47382;DHT22;33128;51.580;5.170;2023-10-19T11:33:44;17.90;99.90
47382;DHT22;33128;51.580;5.170;2023-10-19T11:36:11;18.00;99.90
47382;DHT22;33128;51.580;5.170;2023-10-19T11:38:39;18.00;99.90
47382;DHT22;33128;51.580;5.170;2023-10-19T11:41:05;18.10;99.90
47382;DHT22;33128;51.580;5.170;2023-10-19T11:43:30;18.10;99.90
47382;DHT22;33128;51.580;5.170;2023-10-19T11:45:56;18.00;99.90
47382;DHT22;33128;51.580;5.170;2023-10-19T11:48:22;17.80;99.90
47382;DHT22;33128;51.580;5.170;2023-10-19T11:50:48;17.70;99.90
47382;DHT22;33128;51.580;5.170;2023-10-19T11:53:13;17.60;99.90
47382;DHT22;33128;51.580;5.170;2023-10-19T11:55:39;17.50;99.90
47382;DHT22;33128;51.580;5.170;2023-10-19T11:58:07;17.40;99.90
47382;DHT22;33128;51.580;5.170;2023-10-19T12:00:37;17.40;99.90
47382;DHT22;33128;51.580;5.170;2023-10-19T12:03:03;17.40;99.90
47382;DHT22;33128;51.580;5.170;2023-10-19T12:05:29;17.40;99.90
47382;DHT22;33128;51.580;5.170;2023-10-19T12:07:55;17.40;99.90
47382;DHT22;33128;51.580;5.170;2023-10-19T12:10:22;17.30;99.90
47382;DHT22;33128;51.580;5.170;2023-10-19T12:12:53;17.30;99.90
47382;DHT22;33128;51.580;5.170;2023-10-19T12:15:25;17.30;99.90
47382;DHT22;33128;51.580;5.170;2023-10-19T12:17:51;17.30;99.90
47382;DHT22;33128;51.580;5.170;2023-10-19T12:20:19;17.30;99.90
47382;DHT22;33128;51.580;5.170;2023-10-19T12:22:51;17.40;99.90
47382;DHT22;33128;51.580;5.170;2023-10-19T12:25:22;17.40;99.90
47382;DHT22;33128;51.580;5.170;2023-10-19T12:28:00;17.40;99.90
47382;DHT22;33128;51.580;5.170;2023-10-19T12:30:26;17.40;99.90
47382;DHT22;33128;51.580;5.170;2023-10-19T12:32:59;17.40;99.90
47382;DHT22;33128;51.580;5.170;2023-10-19T12:35:25;17.40;99.90
47382;DHT22;33128;51.580;5.170;2023-10-19T12:38:07;17.30;99.90
47382;DHT22;33128;51.580;5.170;2023-10-19T12:40:37;17.30;99.90
47382;DHT22;33128;51.580;5.170;2023-10-19T12:43:09;17.30;99.90
47382;DHT22;33128;51.580;5.170;2023-10-19T12:45:36;17.30;99.90
47382;DHT22;33128;51.580;5.170;2023-10-19T12:48:06;17.30;99.90
47382;DHT22;33128;51.580;5.170;2023-10-19T12:50:37;17.30;99.90
47382;DHT22;33128;51.580;5.170;2023-10-19T12:53:03;17.30;99.90
47382;DHT22;33128;51.580;5.170;2023-10-19T12:55:35;17.30;99.90
47382;DHT22;33128;51.580;5.170;2023-10-19T12:58:03;17.30;99.90
47382;DHT22;33128;51.580;5.170;2023-10-19T13:00:38;17.30;99.90
47382;DHT22;33128;51.580;5.170;2023-10-19T13:03:10;17.40;99.90
47382;DHT22;33128;51.580;5.170;2023-10-19T13:05:40;17.40;99.90
47382;DHT22;33128;51.580;5.170;2023-10-19T13:08:12;17.50;99.90
47382;DHT22;33128;51.580;5.170;2023-10-19T13:10:43;17.50;99.90
47382;DHT22;33128;51.580;5.170;2023-10-19T13:13:14;17.50;99.90
47382;DHT22;33128;51.580;5.170;2023-10-19T13:15:45;17.60;99.90
47382;DHT22;33128;51.580;5.170;2023-10-19T13:18:12;17.50;99.90
47382;DHT22;33128;51.580;5.170;2023-10-19T13:20:53;17.50;99.90
47382;DHT22;33128;51.580;5.170;2023-10-19T13:23:20;17.50;99.90
47382;DHT22;33128;51.580;5.170;2023-10-19T13:25:49;17.50;99.90
47382;DHT22;33128;51.580;5.170;2023-10-19T13:28:34;17.40;99.90
47382;DHT22;33128;51.580;5.170;2023-10-19T13:31:03;17.40;99.90
47382;DHT22;33128;51.580;5.170;2023-10-19T13:33:29;17.30;99.90
47382;DHT22;33128;51.580;5.170;2023-10-19T13:35:55;17.30;99.90
47382;DHT22;33128;51.580;5.170;2023-10-19T13:38:20;17.20;99.90
47382;DHT22;33128;51.580;5.170;2023-10-19T13:40:47;17.20;99.90
47382;DHT22;33128;51.580;5.170;2023-10-19T13:43:13;17.20;99.90
47382;DHT22;33128;51.580;5.170;2023-10-19T13:45:40;17.20;99.90
47382;DHT22;33128;51.580;5.170;2023-10-19T13:48:07;17.10;99.90
47382;DHT22;33128;51.580;5.170;2023-10-19T13:50:34;17.10;99.90
47382;DHT22;33128;51.580;5.170;2023-10-19T13:53:01;17.10;99.90
47382;DHT22;33128;51.580;5.170;2023-10-19T13:55:30;17.10;99.90
47382;DHT22;33128;51.580;5.170;2023-10-19T13:57:56;17.10;99.90
47382;DHT22;33128;51.580;5.170;2023-10-19T14:00:22;17.10;99.90
47382;DHT22;33128;51.580;5.170;2023-10-19T14:03:07;17.10;99.90
47382;DHT22;33128;51.580;5.170;2023-10-19T14:05:44;17.10;99.90
47382;DHT22;33128;51.580;5.170;2023-10-19T14:08:14;17.10;99.90
47382;DHT22;33128;51.580;5.170;2023-10-19T14:10:42;17.20;99.90
47382;DHT22;33128;51.580;5.170;2023-10-19T14:13:09;17.20;99.90
47382;DHT22;33128;51.580;5.170;2023-10-19T14:15:37;17.20;99.90
47382;DHT22;33128;51.580;5.170;2023-10-19T14:18:03;17.20;99.90
47382;DHT22;33128;51.580;5.170;2023-10-19T14:20:30;17.20;99.90
47382;DHT22;33128;51.580;5.170;2023-10-19T14:22:56;17.20;99.90
47382;DHT22;33128;51.580;5.170;2023-10-19T14:25:22;17.20;99.90
47382;DHT22;33128;51.580;5.170;2023-10-19T14:27:51;17.10;99.90
47382;DHT22;33128;51.580;5.170;2023-10-19T14:30:22;17.20;99.90
47382;DHT22;33128;51.580;5.170;2023-10-19T14:32:48;17.20;99.90
47382;DHT22;33128;51.580;5.170;2023-10-19T14:35:16;17.30;99.90
47382;DHT22;33128;51.580;5.170;2023-10-19T14:37:44;17.40;99.90
47382;DHT22;33128;51.580;5.170;2023-10-19T14:40:12;17.60;99.90
47382;DHT22;33128;51.580;5.170;2023-10-19T14:42:38;17.80;99.90
47382;DHT22;33128;51.580;5.170;2023-10-19T14:45:09;18.00;99.90
47382;DHT22;33128;51.580;5.170;2023-10-19T14:47:36;18.20;99.90
47382;DHT22;33128;51.580;5.170;2023-10-19T14:50:03;18.40;99.90
47382;DHT22;33128;51.580;5.170;2023-10-19T14:52:31;18.40;99.90
47382;DHT22;33128;51.580;5.170;2023-10-19T14:54:57;18.30;99.90
47382;DHT22;33128;51.580;5.170;2023-10-19T14:57:25;18.30;99.90
47382;DHT22;33128;51.580;5.170;2023-10-19T14:59:51;18.20;99.90
47382;DHT22;33128;51.580;5.170;2023-10-19T15:02:17;18.20;99.90
47382;DHT22;33128;51.580;5.170;2023-10-19T15:04:45;18.10;99.90
47382;DHT22;33128;51.580;5.170;2023-10-19T15:07:11;18.00;99.90
47382;DHT22;33128;51.580;5.170;2023-10-19T15:09:37;17.90;99.90
47382;DHT22;33128;51.580;5.170;2023-10-19T15:12:03;18.00;99.90
47382;DHT22;33128;51.580;5.170;2023-10-19T15:14:29;17.90;99.90
47382;DHT22;33128;51.580;5.170;2023-10-19T15:16:54;17.80;99.90
47382;DHT22;33128;51.580;5.170;2023-10-19T15:19:20;17.80;99.90
47382;DHT22;33128;51.580;5.170;2023-10-19T15:21:46;17.70;99.90
47382;DHT22;33128;51.580;5.170;2023-10-19T15:24:11;17.70;99.90
47382;DHT22;33128;51.580;5.170;2023-10-19T15:26:38;17.80;99.90
47382;DHT22;33128;51.580;5.170;2023-10-19T15:29:04;17.80;99.90
47382;DHT22;33128;51.580;5.170;2023-10-19T15:31:30;17.80;99.90
47382;DHT22;33128;51.580;5.170;2023-10-19T15:33:56;17.90;99.90
47382;DHT22;33128;51.580;5.170;2023-10-19T15:36:22;18.00;99.90
47382;DHT22;33128;51.580;5.170;2023-10-19T15:38:48;18.00;99.90
47382;DHT22;33128;51.580;5.170;2023-10-19T15:41:15;18.00;99.90
47382;DHT22;33128;51.580;5.170;2023-10-19T15:43:41;18.00;99.90
47382;DHT22;33128;51.580;5.170;2023-10-19T15:46:07;18.10;99.90
47382;DHT22;33128;51.580;5.170;2023-10-19T15:48:39;18.20;99.90
47382;DHT22;33128;51.580;5.170;2023-10-19T15:51:05;18.10;99.90
47382;DHT22;33128;51.580;5.170;2023-10-19T15:53:33;18.20;99.90
47382;DHT22;33128;51.580;5.170;2023-10-19T15:56:03;18.10;99.90
47382;DHT22;33128;51.580;5.170;2023-10-19T15:58:29;18.10;99.90
47382;DHT22;33128;51.580;5.170;2023-10-19T16:00:54;18.00;99.90